sensor_id;sensor_type;location;lat;lon;timestamp;temperature;humidity
23803;DHT22;12082;51.786;6.018;2023-07-31T00:01:15;14.70;99.90
23803;DHT22;12082;51.786;6.018;2023-07-31T00:03:40;14.70;99.90
23803;DHT22;12082;51.786;6.018;2023-07-31T00:06:06;14.70;99.90
23803;DHT22;12082;51.786;6.018;2023-07-31T00:08:31;14.80;99.90
23803;DHT22;12082;51.786;6.018;2023-07-31T00:10:57;14.80;99.90
23803;DHT22;12082;51.786;6.018;2023-07-31T00:13:22;14.80;99.90
23803;DHT22;12082;51.786;6.018;2023-07-31T00:15:48;14.90;99.90
23803;DHT22;12082;51.786;6.018;2023-07-31T00:18:14;15.00;99.90
23803;DHT22;12082;51.786;6.018;2023-07-31T00:20:39;15.00;99.90
23803;DHT22;12082;51.786;6.018;2023-07-31T00:23:05;15.10;99.90
23803;DHT22;12082;51.786;6.018;2023-07-31T00:25:30;15.10;99.90
23803;DHT22;12082;51.786;6.018;2023-07-31T00:27:56;15.30;99.90
23803;DHT22;12082;51.786;6.018;2023-07-31T00:30:21;15.50;99.90
23803;DHT22;12082;51.786;6.018;2023-07-31T00:32:47;15.50;99.90
23803;DHT22;12082;51.786;6.018;2023-07-31T00:35:13;15.60;99.90
23803;DHT22;12082;51.786;6.018;2023-07-31T00:37:38;15.70;99.90
23803;DHT22;12082;51.786;6.018;2023-07-31T00:40:04;15.80;99.90
23803;DHT22;12082;51.786;6.018;2023-07-31T00:42:30;15.80;99.90
23803;DHT22;12082;51.786;6.018;2023-07-31T00:44:56;15.80;99.90
23803;DHT22;12082;51.786;6.018;2023-07-31T00:47:21;16.00;99.90
23803;DHT22;12082;51.786;6.018;2023-07-31T00:49:48;16.50;99.90
23803;DHT22;12082;51.786;6.018;2023-07-31T00:52:13;15.80;99.90
23803;DHT22;12082;51.786;6.018;2023-07-31T00:54:39;15.80;99.90
23803;DHT22;12082;51.786;6.018;2023-07-31T00:57:05;15.80;99.90
23803;DHT22;12082;51.786;6.018;2023-07-31T00:59:32;15.80;99.90
23803;DHT22;12082;51.786;6.018;2023-07-31T01:01:58;15.90;99.90
23803;DHT22;12082;51.786;6.018;2023-07-31T01:04:24;15.80;99.90
23803;DHT22;12082;51.786;6.018;2023-07-31T01:07:11;15.90;99.90
23803;DHT22;12082;51.786;6.018;2023-07-31T01:09:44;15.80;99.90
23803;DHT22;12082;51.786;6.018;2023-07-31T01:12:15;15.80;99.90
23803;DHT22;12082;51.786;6.018;2023-07-31T01:14:51;15.80;99.90
23803;DHT22;12082;51.786;6.018;2023-07-31T01:17:17;15.80;99.90
23803;DHT22;12082;51.786;6.018;2023-07-31T01:19:42;15.80;99.90
23803;DHT22;12082;51.786;6.018;2023-07-31T01:28:01;15.80;99.90
23803;DHT22;12082;51.786;6.018;2023-07-31T01:30:32;15.80;99.90
23803;DHT22;12082;51.786;6.018;2023-07-31T01:33:03;15.80;99.90
23803;DHT22;12082;51.786;6.018;2023-07-31T01:35:36;15.80;99.90
23803;DHT22;12082;51.786;6.018;2023-07-31T01:38:01;15.80;99.90
23803;DHT22;12082;51.786;6.018;2023-07-31T01:40:27;15.80;99.90
23803;DHT22;12082;51.786;6.018;2023-07-31T01:42:53;15.80;99.90
23803;DHT22;12082;51.786;6.018;2023-07-31T01:45:18;15.70;99.90
23803;DHT22;12082;51.786;6.018;2023-07-31T01:47:44;15.70;99.90
23803;DHT22;12082;51.786;6.018;2023-07-31T01:50:09;15.70;99.90
23803;DHT22;12082;51.786;6.018;2023-07-31T01:52:35;15.70;99.90
23803;DHT22;12082;51.786;6.018;2023-07-31T01:55:01;15.70;99.90
23803;DHT22;12082;51.786;6.018;2023-07-31T01:57:26;15.70;99.90
23803;DHT22;12082;51.786;6.018;2023-07-31T01:59:52;15.70;99.90
23803;DHT22;12082;51.786;6.018;2023-07-31T02:02:19;15.70;99.90
23803;DHT22;12082;51.786;6.018;2023-07-31T02:04:45;15.70;99.90
23803;DHT22;12082;51.786;6.018;2023-07-31T02:07:10;15.70;99.90
23803;DHT22;12082;51.786;6.018;2023-07-31T02:09:36;15.70;99.90
23803;DHT22;12082;51.786;6.018;2023-07-31T02:12:01;15.70;99.90
23803;DHT22;12082;51.786;6.018;2023-07-31T02:14:27;15.70;99.90
23803;DHT22;12082;51.786;6.018;2023-07-31T02:16:53;15.70;99.90
23803;DHT22;12082;51.786;6.018;2023-07-31T02:19:18;15.70;99.90
23803;DHT22;12082;51.786;6.018;2023-07-31T02:21:44;15.70;99.90
23803;DHT22;12082;51.786;6.018;2023-07-31T02:24:09;15.60;99.90
23803;DHT22;12082;51.786;6.018;2023-07-31T02:26:35;15.70;99.90
23803;DHT22;12082;51.786;6.018;2023-07-31T02:29:00;15.70;99.90
23803;DHT22;12082;51.786;6.018;2023-07-31T02:31:26;15.60;99.90
23803;DHT22;12082;51.786;6.018;2023-07-31T02:33:51;15.70;99.90
23803;DHT22;12082;51.786;6.018;2023-07-31T02:36:17;15.60;99.90
23803;DHT22;12082;51.786;6.018;2023-07-31T02:38:43;15.60;99.90
23803;DHT22;12082;51.786;6.018;2023-07-31T02:41:08;15.60;99.90
23803;DHT22;12082;51.786;6.018;2023-07-31T02:43:34;15.70;99.90
23803;DHT22;12082;51.786;6.018;2023-07-31T02:45:59;15.60;99.90
23803;DHT22;12082;51.786;6.018;2023-07-31T02:48:25;15.60;99.90
23803;DHT22;12082;51.786;6.018;2023-07-31T02:50:50;15.60;99.90
23803;DHT22;12082;51.786;6.018;2023-07-31T02:53:16;15.60;99.90
23803;DHT22;12082;51.786;6.018;2023-07-31T02:55:41;15.60;99.90
23803;DHT22;12082;51.786;6.018;2023-07-31T02:58:07;15.50;99.90
23803;DHT22;12082;51.786;6.018;2023-07-31T03:00:32;15.50;99.90
23803;DHT22;12082;51.786;6.018;2023-07-31T03:02:58;15.50;99.90
23803;DHT22;12082;51.786;6.018;2023-07-31T03:05:24;15.50;99.90
23803;DHT22;12082;51.786;6.018;2023-07-31T03:07:49;15.40;99.90
23803;DHT22;12082;51.786;6.018;2023-07-31T03:10:15;15.40;99.90
23803;DHT22;12082;51.786;6.018;2023-07-31T03:12:40;15.40;99.90
23803;DHT22;12082;51.786;6.018;2023-07-31T03:15:06;15.40;99.90
23803;DHT22;12082;51.786;6.018;2023-07-31T03:17:32;15.40;99.90
23803;DHT22;12082;51.786;6.018;2023-07-31T03:19:58;15.40;99.90
23803;DHT22;12082;51.786;6.018;2023-07-31T03:22:23;15.50;99.90
23803;DHT22;12082;51.786;6.018;2023-07-31T03:24:49;15.40;99.90
23803;DHT22;12082;51.786;6.018;2023-07-31T03:27:14;15.40;99.90
23803;DHT22;12082;51.786;6.018;2023-07-31T03:29:40;15.40;99.90
23803;DHT22;12082;51.786;6.018;2023-07-31T03:32:06;15.30;99.90
23803;DHT22;12082;51.786;6.018;2023-07-31T03:34:31;15.30;99.90
23803;DHT22;12082;51.786;6.018;2023-07-31T03:36:58;15.30;99.90
23803;DHT22;12082;51.786;6.018;2023-07-31T03:39:23;15.30;99.90
23803;DHT22;12082;51.786;6.018;2023-07-31T03:41:49;15.20;99.90
23803;DHT22;12082;51.786;6.018;2023-07-31T03:44:14;15.30;99.90
23803;DHT22;12082;51.786;6.018;2023-07-31T03:46:40;15.20;99.90
23803;DHT22;12082;51.786;6.018;2023-07-31T03:49:05;15.30;99.90
23803;DHT22;12082;51.786;6.018;2023-07-31T03:51:31;15.30;99.90
23803;DHT22;12082;51.786;6.018;2023-07-31T03:53:57;15.30;99.90
23803;DHT22;12082;51.786;6.018;2023-07-31T03:56:22;15.30;99.90
23803;DHT22;12082;51.786;6.018;2023-07-31T03:58:48;15.30;99.90
23803;DHT22;12082;51.786;6.018;2023-07-31T04:01:13;15.20;99.90
23803;DHT22;12082;51.786;6.018;2023-07-31T04:03:39;15.20;99.90
23803;DHT22;12082;51.786;6.018;2023-07-31T04:06:04;15.20;99.90
23803;DHT22;12082;51.786;6.018;2023-07-31T04:08:32;15.20;99.90
23803;DHT22;12082;51.786;6.018;2023-07-31T04:10:57;15.20;99.90
23803;DHT22;12082;51.786;6.018;2023-07-31T04:13:23;15.20;99.90
23803;DHT22;12082;51.786;6.018;2023-07-31T04:15:49;15.20;99.90
23803;DHT22;12082;51.786;6.018;2023-07-31T04:18:19;15.20;99.90
23803;DHT22;12082;51.786;6.018;2023-07-31T04:20:45;15.30;99.90
23803;DHT22;12082;51.786;6.018;2023-07-31T04:23:11;15.30;99.90
23803;DHT22;12082;51.786;6.018;2023-07-31T04:25:36;15.40;99.90
23803;DHT22;12082;51.786;6.018;2023-07-31T04:28:02;15.30;99.90
23803;DHT22;12082;51.786;6.018;2023-07-31T04:30:28;15.40;99.90
23803;DHT22;12082;51.786;6.018;2023-07-31T04:32:53;15.50;99.90
23803;DHT22;12082;51.786;6.018;2023-07-31T04:35:19;15.90;99.90
23803;DHT22;12082;51.786;6.018;2023-07-31T04:37:44;15.20;99.90
23803;DHT22;12082;51.786;6.018;2023-07-31T04:40:13;15.60;99.90
23803;DHT22;12082;51.786;6.018;2023-07-31T04:42:39;15.70;99.90
23803;DHT22;12082;51.786;6.018;2023-07-31T04:45:05;15.60;99.90
23803;DHT22;12082;51.786;6.018;2023-07-31T04:47:30;15.70;99.90
23803;DHT22;12082;51.786;6.018;2023-07-31T04:49:56;15.70;99.90
23803;DHT22;12082;51.786;6.018;2023-07-31T04:52:22;15.70;99.90
23803;DHT22;12082;51.786;6.018;2023-07-31T04:54:47;15.80;99.90
23803;DHT22;12082;51.786;6.018;2023-07-31T04:57:13;15.90;99.90
23803;DHT22;12082;51.786;6.018;2023-07-31T04:59:38;15.80;99.90
23803;DHT22;12082;51.786;6.018;2023-07-31T05:02:04;15.80;99.90
23803;DHT22;12082;51.786;6.018;2023-07-31T05:04:30;15.90;99.90
23803;DHT22;12082;51.786;6.018;2023-07-31T05:06:55;15.90;99.90
23803;DHT22;12082;51.786;6.018;2023-07-31T05:09:21;15.90;99.90
23803;DHT22;12082;51.786;6.018;2023-07-31T05:11:46;15.90;99.90
23803;DHT22;12082;51.786;6.018;2023-07-31T05:14:12;16.00;99.90
23803;DHT22;12082;51.786;6.018;2023-07-31T05:16:37;16.10;99.90
23803;DHT22;12082;51.786;6.018;2023-07-31T05:19:03;16.10;99.90
23803;DHT22;12082;51.786;6.018;2023-07-31T05:21:28;16.20;99.90
23803;DHT22;12082;51.786;6.018;2023-07-31T05:23:54;16.10;99.90
23803;DHT22;12082;51.786;6.018;2023-07-31T05:26:19;16.20;99.90
23803;DHT22;12082;51.786;6.018;2023-07-31T05:28:45;16.20;99.90
23803;DHT22;12082;51.786;6.018;2023-07-31T05:31:10;16.20;99.90
23803;DHT22;12082;51.786;6.018;2023-07-31T05:33:36;16.10;99.90
23803;DHT22;12082;51.786;6.018;2023-07-31T05:36:02;16.10;99.90
23803;DHT22;12082;51.786;6.018;2023-07-31T05:38:27;16.10;99.90
23803;DHT22;12082;51.786;6.018;2023-07-31T05:40:53;16.00;99.90
23803;DHT22;12082;51.786;6.018;2023-07-31T05:43:18;16.00;99.90
23803;DHT22;12082;51.786;6.018;2023-07-31T05:45:44;16.00;99.90
23803;DHT22;12082;51.786;6.018;2023-07-31T05:48:09;16.00;99.90
23803;DHT22;12082;51.786;6.018;2023-07-31T05:50:35;16.00;99.90
23803;DHT22;12082;51.786;6.018;2023-07-31T05:53:00;15.90;99.90
23803;DHT22;12082;51.786;6.018;2023-07-31T05:55:26;15.90;99.90
23803;DHT22;12082;51.786;6.018;2023-07-31T05:57:55;15.80;99.90
23803;DHT22;12082;51.786;6.018;2023-07-31T06:00:20;15.80;99.90
23803;DHT22;12082;51.786;6.018;2023-07-31T06:02:47;15.80;99.90
23803;DHT22;12082;51.786;6.018;2023-07-31T06:05:13;15.80;99.90
23803;DHT22;12082;51.786;6.018;2023-07-31T06:07:39;15.80;99.90
23803;DHT22;12082;51.786;6.018;2023-07-31T06:10:05;15.70;99.90
23803;DHT22;12082;51.786;6.018;2023-07-31T06:12:35;15.80;99.90
23803;DHT22;12082;51.786;6.018;2023-07-31T06:15:01;15.80;99.90
23803;DHT22;12082;51.786;6.018;2023-07-31T06:17:27;15.80;99.90
23803;DHT22;12082;51.786;6.018;2023-07-31T06:19:53;15.80;99.90
23803;DHT22;12082;51.786;6.018;2023-07-31T06:22:19;15.90;99.90
23803;DHT22;12082;51.786;6.018;2023-07-31T06:24:44;15.90;99.90
23803;DHT22;12082;51.786;6.018;2023-07-31T06:27:10;15.90;99.90
23803;DHT22;12082;51.786;6.018;2023-07-31T06:29:36;15.90;99.90
23803;DHT22;12082;51.786;6.018;2023-07-31T06:32:02;15.90;99.90
23803;DHT22;12082;51.786;6.018;2023-07-31T06:34:28;16.00;99.90
23803;DHT22;12082;51.786;6.018;2023-07-31T06:36:53;16.00;99.90
23803;DHT22;12082;51.786;6.018;2023-07-31T06:39:19;16.10;99.90
23803;DHT22;12082;51.786;6.018;2023-07-31T06:41:44;16.10;99.90
23803;DHT22;12082;51.786;6.018;2023-07-31T06:44:10;16.10;99.90
23803;DHT22;12082;51.786;6.018;2023-07-31T06:46:36;16.10;99.90
23803;DHT22;12082;51.786;6.018;2023-07-31T06:49:02;16.10;99.90
23803;DHT22;12082;51.786;6.018;2023-07-31T06:51:27;16.20;99.90
23803;DHT22;12082;51.786;6.018;2023-07-31T06:53:53;16.20;99.90
23803;DHT22;12082;51.786;6.018;2023-07-31T06:56:18;16.20;99.90
23803;DHT22;12082;51.786;6.018;2023-07-31T06:58:44;16.10;99.90
23803;DHT22;12082;51.786;6.018;2023-07-31T07:01:09;16.20;99.90
23803;DHT22;12082;51.786;6.018;2023-07-31T07:03:35;16.20;99.90
23803;DHT22;12082;51.786;6.018;2023-07-31T07:06:00;16.20;99.90
23803;DHT22;12082;51.786;6.018;2023-07-31T07:08:26;16.20;99.90
23803;DHT22;12082;51.786;6.018;2023-07-31T07:10:51;16.20;99.90
23803;DHT22;12082;51.786;6.018;2023-07-31T07:13:17;16.30;99.90
23803;DHT22;12082;51.786;6.018;2023-07-31T07:15:50;16.30;99.90
23803;DHT22;12082;51.786;6.018;2023-07-31T07:18:16;16.40;99.90
23803;DHT22;12082;51.786;6.018;2023-07-31T07:20:50;16.40;99.90
23803;DHT22;12082;51.786;6.018;2023-07-31T07:23:16;16.40;99.90
23803;DHT22;12082;51.786;6.018;2023-07-31T07:25:45;16.40;99.90
23803;DHT22;12082;51.786;6.018;2023-07-31T07:28:11;16.40;99.90
23803;DHT22;12082;51.786;6.018;2023-07-31T07:30:37;16.40;99.90
23803;DHT22;12082;51.786;6.018;2023-07-31T07:33:02;16.50;99.90
23803;DHT22;12082;51.786;6.018;2023-07-31T07:35:28;16.40;99.90
23803;DHT22;12082;51.786;6.018;2023-07-31T07:37:54;16.50;99.90
23803;DHT22;12082;51.786;6.018;2023-07-31T07:40:20;16.60;99.90
23803;DHT22;12082;51.786;6.018;2023-07-31T07:42:46;16.50;99.90
23803;DHT22;12082;51.786;6.018;2023-07-31T07:45:12;16.50;99.90
23803;DHT22;12082;51.786;6.018;2023-07-31T07:47:40;16.60;99.90
23803;DHT22;12082;51.786;6.018;2023-07-31T07:50:07;16.60;99.90
23803;DHT22;12082;51.786;6.018;2023-07-31T07:52:33;16.70;99.90
23803;DHT22;12082;51.786;6.018;2023-07-31T07:54:59;16.60;99.90
23803;DHT22;12082;51.786;6.018;2023-07-31T07:57:25;16.60;99.90
23803;DHT22;12082;51.786;6.018;2023-07-31T07:59:51;16.60;99.90
23803;DHT22;12082;51.786;6.018;2023-07-31T08:02:16;16.50;99.90
23803;DHT22;12082;51.786;6.018;2023-07-31T08:04:42;16.60;99.90
23803;DHT22;12082;51.786;6.018;2023-07-31T08:07:08;16.50;99.90
23803;DHT22;12082;51.786;6.018;2023-07-31T08:09:35;16.50;99.90
23803;DHT22;12082;51.786;6.018;2023-07-31T08:12:01;16.60;99.90
23803;DHT22;12082;51.786;6.018;2023-07-31T08:14:28;16.50;99.90
23803;DHT22;12082;51.786;6.018;2023-07-31T08:16:54;16.50;99.90
23803;DHT22;12082;51.786;6.018;2023-07-31T08:19:19;16.60;99.90
23803;DHT22;12082;51.786;6.018;2023-07-31T08:21:45;16.50;99.90
23803;DHT22;12082;51.786;6.018;2023-07-31T08:24:11;16.50;99.90
23803;DHT22;12082;51.786;6.018;2023-07-31T08:26:36;16.50;99.90
23803;DHT22;12082;51.786;6.018;2023-07-31T08:29:02;16.50;99.90
23803;DHT22;12082;51.786;6.018;2023-07-31T08:31:27;16.50;99.90
23803;DHT22;12082;51.786;6.018;2023-07-31T08:33:55;16.40;99.90
23803;DHT22;12082;51.786;6.018;2023-07-31T08:36:20;16.50;99.90
23803;DHT22;12082;51.786;6.018;2023-07-31T08:38:46;16.50;99.90
23803;DHT22;12082;51.786;6.018;2023-07-31T08:41:12;16.50;99.90
23803;DHT22;12082;51.786;6.018;2023-07-31T08:43:39;16.50;99.90
23803;DHT22;12082;51.786;6.018;2023-07-31T08:46:05;16.50;99.90
23803;DHT22;12082;51.786;6.018;2023-07-31T08:48:32;16.40;99.90
23803;DHT22;12082;51.786;6.018;2023-07-31T08:50:58;16.50;99.90
23803;DHT22;12082;51.786;6.018;2023-07-31T08:53:24;16.60;99.90
23803;DHT22;12082;51.786;6.018;2023-07-31T08:55:50;16.60;99.90
23803;DHT22;12082;51.786;6.018;2023-07-31T08:58:18;16.60;99.90
23803;DHT22;12082;51.786;6.018;2023-07-31T09:00:46;16.60;99.90
23803;DHT22;12082;51.786;6.018;2023-07-31T09:03:17;16.60;99.90
23803;DHT22;12082;51.786;6.018;2023-07-31T09:05:46;16.50;99.90
23803;DHT22;12082;51.786;6.018;2023-07-31T09:08:13;16.60;99.90
23803;DHT22;12082;51.786;6.018;2023-07-31T09:10:44;16.60;99.90
23803;DHT22;12082;51.786;6.018;2023-07-31T09:13:12;16.60;99.90
23803;DHT22;12082;51.786;6.018;2023-07-31T09:15:39;16.70;99.90
23803;DHT22;12082;51.786;6.018;2023-07-31T09:18:06;16.60;99.90
23803;DHT22;12082;51.786;6.018;2023-07-31T09:20:32;16.60;99.90
23803;DHT22;12082;51.786;6.018;2023-07-31T09:23:09;16.60;99.90
23803;DHT22;12082;51.786;6.018;2023-07-31T09:25:35;16.50;99.90
23803;DHT22;12082;51.786;6.018;2023-07-31T09:30:29;16.60;99.90
23803;DHT22;12082;51.786;6.018;2023-07-31T09:33:03;16.60;99.90
23803;DHT22;12082;51.786;6.018;2023-07-31T09:35:30;16.60;99.90
23803;DHT22;12082;51.786;6.018;2023-07-31T09:38:04;16.50;99.90
23803;DHT22;12082;51.786;6.018;2023-07-31T09:40:31;16.60;99.90
23803;DHT22;12082;51.786;6.018;2023-07-31T09:43:05;16.50;99.90
23803;DHT22;12082;51.786;6.018;2023-07-31T09:45:37;16.50;99.90
23803;DHT22;12082;51.786;6.018;2023-07-31T09:48:02;16.60;99.90
23803;DHT22;12082;51.786;6.018;2023-07-31T09:50:29;16.50;99.90
23803;DHT22;12082;51.786;6.018;2023-07-31T09:52:55;16.60;99.90
23803;DHT22;12082;51.786;6.018;2023-07-31T09:55:20;16.50;99.90
23803;DHT22;12082;51.786;6.018;2023-07-31T09:57:47;16.50;99.90
23803;DHT22;12082;51.786;6.018;2023-07-31T10:00:15;16.60;99.90
23803;DHT22;12082;51.786;6.018;2023-07-31T10:02:41;16.60;99.90
23803;DHT22;12082;51.786;6.018;2023-07-31T10:05:15;16.50;99.90
23803;DHT22;12082;51.786;6.018;2023-07-31T10:07:43;16.50;99.90
23803;DHT22;12082;51.786;6.018;2023-07-31T10:10:11;16.50;99.90
23803;DHT22;12082;51.786;6.018;2023-07-31T10:12:38;16.60;99.90
23803;DHT22;12082;51.786;6.018;2023-07-31T10:15:04;16.60;99.90
23803;DHT22;12082;51.786;6.018;2023-07-31T10:17:30;16.60;99.90
23803;DHT22;12082;51.786;6.018;2023-07-31T10:19:59;16.60;99.90
23803;DHT22;12082;51.786;6.018;2023-07-31T10:22:27;16.70;99.90
23803;DHT22;12082;51.786;6.018;2023-07-31T10:24:54;16.60;99.90
23803;DHT22;12082;51.786;6.018;2023-07-31T10:27:20;16.80;99.90
23803;DHT22;12082;51.786;6.018;2023-07-31T10:29:47;16.90;99.90
23803;DHT22;12082;51.786;6.018;2023-07-31T10:32:14;17.00;99.90
23803;DHT22;12082;51.786;6.018;2023-07-31T10:34:41;17.10;99.90
23803;DHT22;12082;51.786;6.018;2023-07-31T10:42:35;17.40;99.90
23803;DHT22;12082;51.786;6.018;2023-07-31T10:45:07;17.50;99.90
23803;DHT22;12082;51.786;6.018;2023-07-31T10:47:45;17.60;99.90
23803;DHT22;12082;51.786;6.018;2023-07-31T10:50:19;17.80;99.90
23803;DHT22;12082;51.786;6.018;2023-07-31T10:52:51;17.80;99.90
23803;DHT22;12082;51.786;6.018;2023-07-31T10:58:09;18.00;99.90
23803;DHT22;12082;51.786;6.018;2023-07-31T11:00:41;18.10;99.90
23803;DHT22;12082;51.786;6.018;2023-07-31T11:03:17;18.20;99.90
23803;DHT22;12082;51.786;6.018;2023-07-31T11:08:28;18.30;99.90
23803;DHT22;12082;51.786;6.018;2023-07-31T11:11:07;17.90;99.90
23803;DHT22;12082;51.786;6.018;2023-07-31T11:16:12;17.60;99.90
23803;DHT22;12082;51.786;6.018;2023-07-31T11:18:40;17.60;99.90
23803;DHT22;12082;51.786;6.018;2023-07-31T11:21:06;17.60;99.90
23803;DHT22;12082;51.786;6.018;2023-07-31T11:23:33;17.60;99.90
23803;DHT22;12082;51.786;6.018;2023-07-31T11:25:59;17.60;99.90
23803;DHT22;12082;51.786;6.018;2023-07-31T11:28:25;17.60;99.90
23803;DHT22;12082;51.786;6.018;2023-07-31T11:30:51;17.50;99.90
23803;DHT22;12082;51.786;6.018;2023-07-31T11:33:17;17.50;99.90
23803;DHT22;12082;51.786;6.018;2023-07-31T11:35:47;17.50;99.90
23803;DHT22;12082;51.786;6.018;2023-07-31T11:38:31;17.50;99.90
23803;DHT22;12082;51.786;6.018;2023-07-31T11:41:00;17.50;99.90
23803;DHT22;12082;51.786;6.018;2023-07-31T11:43:28;17.50;99.90
23803;DHT22;12082;51.786;6.018;2023-07-31T11:45:55;17.70;99.90
23803;DHT22;12082;51.786;6.018;2023-07-31T11:48:26;17.70;99.90
23803;DHT22;12082;51.786;6.018;2023-07-31T11:50:54;17.90;99.90
23803;DHT22;12082;51.786;6.018;2023-07-31T11:53:40;18.00;99.90
23803;DHT22;12082;51.786;6.018;2023-07-31T11:56:09;18.00;99.90
23803;DHT22;12082;51.786;6.018;2023-07-31T11:58:36;18.20;99.90
23803;DHT22;12082;51.786;6.018;2023-07-31T12:01:04;18.30;99.90
23803;DHT22;12082;51.786;6.018;2023-07-31T12:03:31;18.30;99.90
23803;DHT22;12082;51.786;6.018;2023-07-31T12:05:58;18.30;99.90
23803;DHT22;12082;51.786;6.018;2023-07-31T12:08:24;18.30;99.90
23803;DHT22;12082;51.786;6.018;2023-07-31T12:10:51;18.30;99.90
23803;DHT22;12082;51.786;6.018;2023-07-31T12:13:22;18.30;99.90
23803;DHT22;12082;51.786;6.018;2023-07-31T12:15:48;18.40;99.90
23803;DHT22;12082;51.786;6.018;2023-07-31T12:18:17;18.40;99.90
23803;DHT22;12082;51.786;6.018;2023-07-31T12:20:46;18.30;99.90
23803;DHT22;12082;51.786;6.018;2023-07-31T12:23:23;18.40;99.90
23803;DHT22;12082;51.786;6.018;2023-07-31T12:28:55;18.40;99.90
23803;DHT22;12082;51.786;6.018;2023-07-31T12:31:21;18.60;99.90
23803;DHT22;12082;51.786;6.018;2023-07-31T12:33:49;18.70;99.90
23803;DHT22;12082;51.786;6.018;2023-07-31T12:36:22;18.70;99.90
23803;DHT22;12082;51.786;6.018;2023-07-31T12:38:49;18.70;99.90
23803;DHT22;12082;51.786;6.018;2023-07-31T12:41:15;18.70;99.90
23803;DHT22;12082;51.786;6.018;2023-07-31T12:43:43;18.70;99.90
23803;DHT22;12082;51.786;6.018;2023-07-31T12:46:09;18.80;99.90
23803;DHT22;12082;51.786;6.018;2023-07-31T12:48:35;18.70;99.90
23803;DHT22;12082;51.786;6.018;2023-07-31T12:51:01;18.90;99.90
23803;DHT22;12082;51.786;6.018;2023-07-31T12:53:28;18.70;99.90
23803;DHT22;12082;51.786;6.018;2023-07-31T12:55:57;18.70;99.90
23803;DHT22;12082;51.786;6.018;2023-07-31T12:58:23;18.70;99.90
23803;DHT22;12082;51.786;6.018;2023-07-31T13:00:49;18.60;99.90
23803;DHT22;12082;51.786;6.018;2023-07-31T13:03:14;18.70;99.90
23803;DHT22;12082;51.786;6.018;2023-07-31T13:05:40;18.70;99.90
23803;DHT22;12082;51.786;6.018;2023-07-31T13:08:06;18.70;99.90
23803;DHT22;12082;51.786;6.018;2023-07-31T13:10:32;18.70;99.90
23803;DHT22;12082;51.786;6.018;2023-07-31T13:12:57;18.70;99.90
23803;DHT22;12082;51.786;6.018;2023-07-31T13:15:23;18.70;99.90
23803;DHT22;12082;51.786;6.018;2023-07-31T13:17:49;18.60;99.90
23803;DHT22;12082;51.786;6.018;2023-07-31T13:20:14;18.40;99.90
23803;DHT22;12082;51.786;6.018;2023-07-31T13:22:40;18.30;99.90
23803;DHT22;12082;51.786;6.018;2023-07-31T13:25:06;18.40;99.90
23803;DHT22;12082;51.786;6.018;2023-07-31T13:27:31;18.30;99.90
23803;DHT22;12082;51.786;6.018;2023-07-31T13:29:57;18.40;99.90
23803;DHT22;12082;51.786;6.018;2023-07-31T13:32:23;18.40;99.90
23803;DHT22;12082;51.786;6.018;2023-07-31T13:34:49;18.50;99.90
23803;DHT22;12082;51.786;6.018;2023-07-31T13:37:14;18.40;99.90
23803;DHT22;12082;51.786;6.018;2023-07-31T13:39:41;18.60;99.90
23803;DHT22;12082;51.786;6.018;2023-07-31T13:42:07;18.50;99.90
23803;DHT22;12082;51.786;6.018;2023-07-31T13:44:37;18.40;99.90
23803;DHT22;12082;51.786;6.018;2023-07-31T13:47:02;18.40;99.90
23803;DHT22;12082;51.786;6.018;2023-07-31T13:49:29;18.40;99.90
23803;DHT22;12082;51.786;6.018;2023-07-31T13:51:55;18.40;99.90
23803;DHT22;12082;51.786;6.018;2023-07-31T13:54:22;18.40;99.90
23803;DHT22;12082;51.786;6.018;2023-07-31T13:56:47;18.60;99.90
23803;DHT22;12082;51.786;6.018;2023-07-31T13:59:13;18.60;99.90
23803;DHT22;12082;51.786;6.018;2023-07-31T14:01:40;18.70;99.90
23803;DHT22;12082;51.786;6.018;2023-07-31T14:04:06;18.70;99.90
23803;DHT22;12082;51.786;6.018;2023-07-31T14:06:31;18.90;99.90
23803;DHT22;12082;51.786;6.018;2023-07-31T14:08:57;19.10;99.90
23803;DHT22;12082;51.786;6.018;2023-07-31T14:11:22;19.00;99.90
23803;DHT22;12082;51.786;6.018;2023-07-31T14:13:49;19.00;99.90
23803;DHT22;12082;51.786;6.018;2023-07-31T14:16:15;19.00;99.90
23803;DHT22;12082;51.786;6.018;2023-07-31T14:18:41;19.20;99.90
23803;DHT22;12082;51.786;6.018;2023-07-31T14:21:07;19.20;99.90
23803;DHT22;12082;51.786;6.018;2023-07-31T14:23:33;19.00;99.90
23803;DHT22;12082;51.786;6.018;2023-07-31T14:25:59;19.00;99.90
23803;DHT22;12082;51.786;6.018;2023-07-31T14:28:24;18.80;99.90
23803;DHT22;12082;51.786;6.018;2023-07-31T14:30:50;18.80;99.90
23803;DHT22;12082;51.786;6.018;2023-07-31T14:33:15;18.90;99.90
23803;DHT22;12082;51.786;6.018;2023-07-31T14:35:41;18.80;99.90
23803;DHT22;12082;51.786;6.018;2023-07-31T14:38:07;18.70;99.90
23803;DHT22;12082;51.786;6.018;2023-07-31T14:40:32;18.50;99.90
23803;DHT22;12082;51.786;6.018;2023-07-31T14:42:58;18.30;99.90
23803;DHT22;12082;51.786;6.018;2023-07-31T14:45:23;18.10;99.90
23803;DHT22;12082;51.786;6.018;2023-07-31T14:47:49;18.20;99.90
23803;DHT22;12082;51.786;6.018;2023-07-31T14:50:15;18.10;99.90
23803;DHT22;12082;51.786;6.018;2023-07-31T14:52:40;18.20;99.90
23803;DHT22;12082;51.786;6.018;2023-07-31T14:55:06;18.30;99.90
23803;DHT22;12082;51.786;6.018;2023-07-31T14:57:32;18.30;99.90
23803;DHT22;12082;51.786;6.018;2023-07-31T14:59:57;18.30;99.90
23803;DHT22;12082;51.786;6.018;2023-07-31T15:02:23;18.30;99.90
23803;DHT22;12082;51.786;6.018;2023-07-31T15:04:50;18.20;99.90
23803;DHT22;12082;51.786;6.018;2023-07-31T15:07:16;18.10;99.90
23803;DHT22;12082;51.786;6.018;2023-07-31T15:09:41;18.00;99.90
23803;DHT22;12082;51.786;6.018;2023-07-31T15:12:07;17.90;99.90
23803;DHT22;12082;51.786;6.018;2023-07-31T15:14:33;17.90;99.90
23803;DHT22;12082;51.786;6.018;2023-07-31T15:16:59;18.00;99.90
23803;DHT22;12082;51.786;6.018;2023-07-31T15:19:25;17.90;99.90
23803;DHT22;12082;51.786;6.018;2023-07-31T15:21:51;17.90;99.90
23803;DHT22;12082;51.786;6.018;2023-07-31T15:24:17;18.00;99.90
23803;DHT22;12082;51.786;6.018;2023-07-31T15:26:43;17.90;99.90
23803;DHT22;12082;51.786;6.018;2023-07-31T15:29:08;17.90;99.90
23803;DHT22;12082;51.786;6.018;2023-07-31T15:31:39;17.90;99.90
23803;DHT22;12082;51.786;6.018;2023-07-31T15:34:05;17.90;99.90
23803;DHT22;12082;51.786;6.018;2023-07-31T15:36:31;17.90;99.90
23803;DHT22;12082;51.786;6.018;2023-07-31T15:38:57;17.90;99.90
23803;DHT22;12082;51.786;6.018;2023-07-31T15:41:23;17.90;99.90
23803;DHT22;12082;51.786;6.018;2023-07-31T15:43:49;18.00;99.90
23803;DHT22;12082;51.786;6.018;2023-07-31T15:46:15;17.90;99.90
23803;DHT22;12082;51.786;6.018;2023-07-31T15:48:40;18.00;99.90
23803;DHT22;12082;51.786;6.018;2023-07-31T15:51:06;17.90;99.90